sensor_id;sensor_type;location;lat;lon;timestamp;pressure;altitude;pressure_sealevel;temperature;humidity
12763;BME280;6445;52.490;13.378;2023-08-21T00:01:13;115814.03;;;-146.10;100.00
12763;BME280;6445;52.490;13.378;2023-08-21T00:03:38;115814.03;;;-146.10;100.00
12763;BME280;6445;52.490;13.378;2023-08-21T00:06:04;115033.63;;;-146.10;100.00
12763;BME280;6445;52.490;13.378;2023-08-21T00:08:29;115553.88;;;-146.10;100.00
12763;BME280;6445;52.490;13.378;2023-08-21T00:10:55;115033.63;;;-146.10;100.00
12763;BME280;6445;52.490;13.378;2023-08-21T00:13:20;115814.03;;;-146.10;100.00
12763;BME280;6445;52.490;13.378;2023-08-21T00:15:45;116074.19;;;-146.10;100.00
12763;BME280;6445;52.490;13.378;2023-08-21T00:18:11;116334.38;;;-146.10;100.00
12763;BME280;6445;52.490;13.378;2023-08-21T00:20:36;116594.56;;;-146.10;100.00
12763;BME280;6445;52.490;13.378;2023-08-21T00:23:01;117115.03;;;-146.10;100.00
12763;BME280;6445;52.490;13.378;2023-08-21T00:25:27;117375.28;;;-146.10;100.00
12763;BME280;6445;52.490;13.378;2023-08-21T00:27:52;117635.53;;;-146.10;100.00
12763;BME280;6445;52.490;13.378;2023-08-21T00:30:17;117635.53;;;-146.10;100.00
12763;BME280;6445;52.490;13.378;2023-08-21T00:32:43;118156.13;;;-146.10;100.00
12763;BME280;6445;52.490;13.378;2023-08-21T00:35:08;118156.13;;;-146.10;100.00
12763;BME280;6445;52.490;13.378;2023-08-21T00:37:33;118156.13;;;-146.10;100.00
12763;BME280;6445;52.490;13.378;2023-08-21T00:39:58;118416.44;;;-146.10;100.00
12763;BME280;6445;52.490;13.378;2023-08-21T00:42:24;118416.44;;;-146.10;100.00
12763;BME280;6445;52.490;13.378;2023-08-21T00:44:49;118416.44;;;-146.10;100.00
12763;BME280;6445;52.490;13.378;2023-08-21T00:47:14;118416.44;;;-146.10;100.00
12763;BME280;6445;52.490;13.378;2023-08-21T00:49:40;118416.44;;;-146.10;100.00
12763;BME280;6445;52.490;13.378;2023-08-21T00:52:07;118418.47;;;-146.10;100.00
12763;BME280;6445;52.490;13.378;2023-08-21T00:54:34;118418.47;;;-146.10;100.00
12763;BME280;6445;52.490;13.378;2023-08-21T00:56:59;118416.44;;;-146.10;100.00
12763;BME280;6445;52.490;13.378;2023-08-21T00:59:25;118416.44;;;-146.10;100.00
12763;BME280;6445;52.490;13.378;2023-08-21T01:01:50;118416.44;;;-146.10;100.00
12763;BME280;6445;52.490;13.378;2023-08-21T01:04:16;118416.44;;;-146.10;100.00
12763;BME280;6445;52.490;13.378;2023-08-21T01:06:42;118416.44;;;-146.10;100.00
12763;BME280;6445;52.490;13.378;2023-08-21T01:09:25;118416.44;;;-146.10;100.00
12763;BME280;6445;52.490;13.378;2023-08-21T01:12:01;118418.47;;;-146.10;100.00
12763;BME280;6445;52.490;13.378;2023-08-21T01:14:31;118416.44;;;-146.10;100.00
12763;BME280;6445;52.490;13.378;2023-08-21T01:17:00;118416.44;;;-146.10;100.00
12763;BME280;6445;52.490;13.378;2023-08-21T01:19:48;118416.44;;;-146.10;100.00
12763;BME280;6445;52.490;13.378;2023-08-21T01:22:13;118416.44;;;-146.10;100.00
12763;BME280;6445;52.490;13.378;2023-08-21T01:24:38;118416.44;;;-146.10;100.00
12763;BME280;6445;52.490;13.378;2023-08-21T01:27:04;118416.44;;;-146.10;100.00
12763;BME280;6445;52.490;13.378;2023-08-21T01:29:29;118156.13;;;-146.10;100.00
12763;BME280;6445;52.490;13.378;2023-08-21T01:32:09;118416.44;;;-146.10;100.00
12763;BME280;6445;52.490;13.378;2023-08-21T01:34:36;118156.13;;;-146.10;100.00
12763;BME280;6445;52.490;13.378;2023-08-21T01:37:03;118156.13;;;-146.10;100.00
12763;BME280;6445;52.490;13.378;2023-08-21T01:39:28;118156.13;;;-146.10;100.00
12763;BME280;6445;52.490;13.378;2023-08-21T01:41:54;118156.13;;;-146.10;100.00
12763;BME280;6445;52.490;13.378;2023-08-21T01:44:21;118156.13;;;-146.10;100.00
12763;BME280;6445;52.490;13.378;2023-08-21T01:46:46;118156.13;;;-146.10;100.00
12763;BME280;6445;52.490;13.378;2023-08-21T01:49:11;118416.44;;;-146.10;100.00
12763;BME280;6445;52.490;13.378;2023-08-21T01:51:36;118416.44;;;-146.10;100.00
12763;BME280;6445;52.490;13.378;2023-08-21T01:54:02;118416.44;;;-146.10;100.00
12763;BME280;6445;52.490;13.378;2023-08-21T01:56:27;118416.44;;;-146.10;100.00
12763;BME280;6445;52.490;13.378;2023-08-21T01:58:52;118156.13;;;-146.10;100.00
12763;BME280;6445;52.490;13.378;2023-08-21T02:01:17;118156.13;;;-146.10;100.00
12763;BME280;6445;52.490;13.378;2023-08-21T02:03:43;117895.81;;;-146.10;100.00
12763;BME280;6445;52.490;13.378;2023-08-21T02:06:09;118156.13;;;-146.10;100.00
12763;BME280;6445;52.490;13.378;2023-08-21T02:08:34;118156.13;;;-146.10;100.00
12763;BME280;6445;52.490;13.378;2023-08-21T02:11:00;118416.44;;;-146.10;100.00
12763;BME280;6445;52.490;13.378;2023-08-21T02:13:25;118416.44;;;-146.10;100.00
12763;BME280;6445;52.490;13.378;2023-08-21T02:15:51;118416.44;;;-146.10;100.00
12763;BME280;6445;52.490;13.378;2023-08-21T02:18:16;118416.44;;;-146.10;100.00
12763;BME280;6445;52.490;13.378;2023-08-21T02:20:41;118156.13;;;-146.10;100.00
12763;BME280;6445;52.490;13.378;2023-08-21T02:23:07;118156.13;;;-146.10;100.00
12763;BME280;6445;52.490;13.378;2023-08-21T02:25:32;118416.44;;;-146.10;100.00
12763;BME280;6445;52.490;13.378;2023-08-21T02:27:57;118416.44;;;-146.10;100.00
12763;BME280;6445;52.490;13.378;2023-08-21T02:30:23;117895.81;;;-146.10;100.00
12763;BME280;6445;52.490;13.378;2023-08-21T02:32:51;118156.13;;;-146.10;100.00
12763;BME280;6445;52.490;13.378;2023-08-21T02:35:16;118156.13;;;-146.10;100.00
12763;BME280;6445;52.490;13.378;2023-08-21T02:37:42;118156.13;;;-146.10;100.00
12763;BME280;6445;52.490;13.378;2023-08-21T02:40:07;118156.13;;;-146.10;100.00
12763;BME280;6445;52.490;13.378;2023-08-21T02:42:35;118416.44;;;-146.10;100.00
12763;BME280;6445;52.490;13.378;2023-08-21T02:45:01;118156.13;;;-146.10;100.00
12763;BME280;6445;52.490;13.378;2023-08-21T02:47:29;118156.13;;;-146.10;100.00
12763;BME280;6445;52.490;13.378;2023-08-21T02:49:54;118156.13;;;-146.10;100.00
12763;BME280;6445;52.490;13.378;2023-08-21T02:52:19;117895.81;;;-146.10;100.00
12763;BME280;6445;52.490;13.378;2023-08-21T02:54:45;118156.13;;;-146.10;100.00
12763;BME280;6445;52.490;13.378;2023-08-21T02:57:10;118156.13;;;-146.10;100.00
12763;BME280;6445;52.490;13.378;2023-08-21T02:59:35;117895.81;;;-146.10;100.00
12763;BME280;6445;52.490;13.378;2023-08-21T03:02:00;118156.13;;;-146.10;100.00
12763;BME280;6445;52.490;13.378;2023-08-21T03:04:26;118156.13;;;-146.10;100.00
12763;BME280;6445;52.490;13.378;2023-08-21T03:06:51;118156.13;;;-146.10;100.00
12763;BME280;6445;52.490;13.378;2023-08-21T03:09:16;118156.13;;;-146.10;100.00
12763;BME280;6445;52.490;13.378;2023-08-21T03:11:41;117895.81;;;-146.10;100.00
12763;BME280;6445;52.490;13.378;2023-08-21T03:14:07;117635.53;;;-146.10;100.00
12763;BME280;6445;52.490;13.378;2023-08-21T03:16:32;117895.81;;;-146.10;100.00
12763;BME280;6445;52.490;13.378;2023-08-21T03:18:59;117635.53;;;-146.10;100.00
12763;BME280;6445;52.490;13.378;2023-08-21T03:21:25;117375.28;;;-146.10;100.00
12763;BME280;6445;52.490;13.378;2023-08-21T03:23:54;117375.28;;;-146.10;100.00
12763;BME280;6445;52.490;13.378;2023-08-21T03:26:19;117375.28;;;-146.10;100.00
12763;BME280;6445;52.490;13.378;2023-08-21T03:28:44;117375.28;;;-146.10;100.00
12763;BME280;6445;52.490;13.378;2023-08-21T03:31:10;116854.78;;;-146.10;100.00
12763;BME280;6445;52.490;13.378;2023-08-21T03:33:35;117115.03;;;-146.10;100.00
12763;BME280;6445;52.490;13.378;2023-08-21T03:36:00;117375.28;;;-146.10;100.00
12763;BME280;6445;52.490;13.378;2023-08-21T03:38:25;117375.28;;;-146.10;100.00
12763;BME280;6445;52.490;13.378;2023-08-21T03:40:51;117115.03;;;-146.10;100.00
12763;BME280;6445;52.490;13.378;2023-08-21T03:43:16;117115.03;;;-146.10;100.00
12763;BME280;6445;52.490;13.378;2023-08-21T03:45:41;117115.03;;;-146.10;100.00
12763;BME280;6445;52.490;13.378;2023-08-21T03:48:06;117115.03;;;-146.10;100.00
12763;BME280;6445;52.490;13.378;2023-08-21T03:50:32;116594.56;;;-146.10;100.00
12763;BME280;6445;52.490;13.378;2023-08-21T03:52:57;117115.03;;;-146.10;100.00
12763;BME280;6445;52.490;13.378;2023-08-21T03:55:22;117375.28;;;-146.10;100.00
12763;BME280;6445;52.490;13.378;2023-08-21T03:57:47;117115.03;;;-146.10;100.00
12763;BME280;6445;52.490;13.378;2023-08-21T04:00:13;116594.56;;;-146.10;100.00
12763;BME280;6445;52.490;13.378;2023-08-21T04:02:38;116334.38;;;-146.10;100.00
12763;BME280;6445;52.490;13.378;2023-08-21T04:05:04;116074.19;;;-146.10;100.00
12763;BME280;6445;52.490;13.378;2023-08-21T04:07:29;115814.03;;;-146.10;100.00
12763;BME280;6445;52.490;13.378;2023-08-21T04:09:55;115814.03;;;-146.10;100.00
12763;BME280;6445;52.490;13.378;2023-08-21T04:12:20;115553.88;;;-146.10;100.00
12763;BME280;6445;52.490;13.378;2023-08-21T04:14:45;116074.19;;;-146.10;100.00
12763;BME280;6445;52.490;13.378;2023-08-21T04:17:10;115553.88;;;-146.10;100.00
12763;BME280;6445;52.490;13.378;2023-08-21T04:19:36;115814.03;;;-146.10;100.00
12763;BME280;6445;52.490;13.378;2023-08-21T04:22:01;116074.19;;;-146.10;100.00
12763;BME280;6445;52.490;13.378;2023-08-21T04:24:26;116074.19;;;-146.10;100.00
12763;BME280;6445;52.490;13.378;2023-08-21T04:26:52;114773.50;;;-146.10;100.00
12763;BME280;6445;52.490;13.378;2023-08-21T04:29:17;115293.72;;;-146.10;100.00
12763;BME280;6445;52.490;13.378;2023-08-21T04:31:42;115814.03;;;-146.10;100.00
12763;BME280;6445;52.490;13.378;2023-08-21T04:34:07;116074.19;;;-146.10;100.00
12763;BME280;6445;52.490;13.378;2023-08-21T04:36:33;116074.19;;;-146.10;100.00
12763;BME280;6445;52.490;13.378;2023-08-21T04:38:58;116074.19;;;-146.10;100.00
12763;BME280;6445;52.490;13.378;2023-08-21T04:41:23;116074.19;;;-146.10;100.00
12763;BME280;6445;52.490;13.378;2023-08-21T04:43:48;116074.19;;;-146.10;100.00
12763;BME280;6445;52.490;13.378;2023-08-21T04:46:14;116074.19;;;-146.10;100.00
12763;BME280;6445;52.490;13.378;2023-08-21T04:48:39;116074.19;;;-146.10;100.00
12763;BME280;6445;52.490;13.378;2023-08-21T04:51:04;116334.38;;;-146.10;100.00
12763;BME280;6445;52.490;13.378;2023-08-21T04:53:29;115553.88;;;-146.10;100.00
12763;BME280;6445;52.490;13.378;2023-08-21T04:55:55;116074.19;;;-146.10;100.00
12763;BME280;6445;52.490;13.378;2023-08-21T04:58:20;114513.44;;;-146.10;100.00
12763;BME280;6445;52.490;13.378;2023-08-21T05:00:46;113993.31;;;-146.10;100.00
12763;BME280;6445;52.490;13.378;2023-08-21T05:03:11;114513.44;;;-146.10;100.00
12763;BME280;6445;52.490;13.378;2023-08-21T05:05:37;113993.31;;;-146.10;100.00
12763;BME280;6445;52.490;13.378;2023-08-21T05:08:02;114253.34;;;-146.10;100.00
12763;BME280;6445;52.490;13.378;2023-08-21T05:10:28;114253.34;;;-146.10;100.00
12763;BME280;6445;52.490;13.378;2023-08-21T05:12:56;114513.44;;;-146.10;100.00
12763;BME280;6445;52.490;13.378;2023-08-21T05:15:21;115033.63;;;-146.10;100.00
12763;BME280;6445;52.490;13.378;2023-08-21T05:17:47;115033.63;;;-146.10;100.00
12763;BME280;6445;52.490;13.378;2023-08-21T05:20:15;113213.25;;;-146.10;100.00
12763;BME280;6445;52.490;13.378;2023-08-21T05:22:41;112693.28;;;-146.10;100.00
12763;BME280;6445;52.490;13.378;2023-08-21T05:25:07;109834.72;;;-146.10;100.00
12763;BME280;6445;52.490;13.378;2023-08-21T05:27:32;108536.03;;;-146.10;100.00
12763;BME280;6445;52.490;13.378;2023-08-21T05:29:57;108276.34;;;-146.10;100.00
12763;BME280;6445;52.490;13.378;2023-08-21T05:32:23;108016.69;;;-146.10;100.00
12763;BME280;6445;52.490;13.378;2023-08-21T05:34:48;106459.00;;;-146.10;100.00
12763;BME280;6445;52.490;13.378;2023-08-21T05:37:13;98420.50;;;-146.10;100.00
12763;BME280;6445;52.490;13.378;2023-08-21T05:39:38;90915.03;;;-146.10;100.00
12763;BME280;6445;52.490;13.378;2023-08-21T05:42:04;83155.31;;;-146.10;100.00
12763;BME280;6445;52.490;13.378;2023-08-21T05:44:29;91690.81;;;-146.10;100.00
12763;BME280;6445;52.490;13.378;2023-08-21T05:46:54;75004.13;;;-146.10;100.00
12763;BME280;6445;52.490;13.378;2023-08-21T05:49:20;65992.06;;;-146.10;100.00
12763;BME280;6445;52.490;13.378;2023-08-21T05:51:45;62815.38;;;-146.10;100.00
12763;BME280;6445;52.490;13.378;2023-08-21T05:54:10;70973.91;;;-146.10;100.00
12763;BME280;6445;52.490;13.378;2023-08-21T05:56:35;59845.66;;;-146.10;99.09
12763;BME280;6445;52.490;13.378;2023-08-21T05:59:01;60807.91;;;-146.10;100.00
12763;BME280;6445;52.490;13.378;2023-08-21T06:01:26;70577.97;;;-146.10;100.00
12763;BME280;6445;52.490;13.378;2023-08-21T06:03:54;68781.53;;;-146.10;100.00
12763;BME280;6445;52.490;13.378;2023-08-21T06:06:20;63481.41;;;-146.10;100.00
12763;BME280;6445;52.490;13.378;2023-08-21T06:08:45;58014.00;;;-146.10;96.26
12763;BME280;6445;52.490;13.378;2023-08-21T06:11:10;56649.84;;;-146.10;92.95
12763;BME280;6445;52.490;13.378;2023-08-21T06:13:36;55894.84;;;-146.10;90.45
12763;BME280;6445;52.490;13.378;2023-08-21T06:16:01;57449.06;;;-146.10;97.21
12763;BME280;6445;52.490;13.378;2023-08-21T06:18:26;59300.50;;;-146.10;100.00
12763;BME280;6445;52.490;13.378;2023-08-21T06:20:51;59296.47;;;-146.10;100.00
12763;BME280;6445;52.490;13.378;2023-08-21T06:23:19;59406.72;;;-146.10;100.00
12763;BME280;6445;52.490;13.378;2023-08-21T06:25:44;57296.81;;;-146.10;95.99
12763;BME280;6445;52.490;13.378;2023-08-21T06:28:10;57793.63;;;-146.10;97.37
12763;BME280;6445;52.490;13.378;2023-08-21T06:30:35;57693.47;;;-146.10;98.05
12763;BME280;6445;52.490;13.378;2023-08-21T06:33:00;59158.19;;;-146.10;100.00
12763;BME280;6445;52.490;13.378;2023-08-21T06:35:26;58823.53;;;-146.10;100.00
12763;BME280;6445;52.490;13.378;2023-08-21T06:37:51;60831.97;;;-146.10;100.00
12763;BME280;6445;52.490;13.378;2023-08-21T06:40:17;57555.22;;;-146.10;95.81
12763;BME280;6445;52.490;13.378;2023-08-21T06:42:42;54569.44;;;-146.10;78.60
12763;BME280;6445;52.490;13.378;2023-08-21T06:45:08;53806.81;;;-146.10;69.71
12763;BME280;6445;52.490;13.378;2023-08-21T06:47:33;53742.78;;;-146.10;72.52
12763;BME280;6445;52.490;13.378;2023-08-21T06:49:59;53768.81;;;-146.10;73.38
12763;BME280;6445;52.490;13.378;2023-08-21T06:52:25;53848.84;;;-146.10;74.15
12763;BME280;6445;52.490;13.378;2023-08-21T06:54:51;53986.97;;;-146.10;77.76
12763;BME280;6445;52.490;13.378;2023-08-21T06:57:16;53868.88;;;-146.10;74.40
12763;BME280;6445;52.490;13.378;2023-08-21T06:59:41;53754.78;;;-146.10;70.54
12763;BME280;6445;52.490;13.378;2023-08-21T07:02:06;53614.69;;;-146.10;67.73
12763;BME280;6445;52.490;13.378;2023-08-21T07:04:32;53548.66;;;-146.10;61.21
12763;BME280;6445;52.490;13.378;2023-08-21T07:07:00;53460.59;;;-146.10;56.87
12763;BME280;6445;52.490;13.378;2023-08-21T07:09:25;53460.59;;;-146.10;54.17
12763;BME280;6445;52.490;13.378;2023-08-21T07:11:51;53538.66;;;-146.10;50.64
12763;BME280;6445;52.490;13.378;2023-08-21T07:14:16;53446.59;;;-146.10;52.59
12763;BME280;6445;52.490;13.378;2023-08-21T07:16:43;53438.59;;;-146.10;53.57
12763;BME280;6445;52.490;13.378;2023-08-21T07:19:09;53482.63;;;-146.10;49.21
12763;BME280;6445;52.490;13.378;2023-08-21T07:21:34;53536.66;;;-146.10;45.10
12763;BME280;6445;52.490;13.378;2023-08-21T07:24:04;53520.63;;;-146.10;45.16
12763;BME280;6445;52.490;13.378;2023-08-21T07:26:30;53694.75;;;-146.10;42.07
12763;BME280;6445;52.490;13.378;2023-08-21T07:28:56;53856.88;;;-146.10;39.42
12763;BME280;6445;52.490;13.378;2023-08-21T07:31:22;53884.88;;;-146.10;37.12
12763;BME280;6445;52.490;13.378;2023-08-21T07:33:47;53720.78;;;-146.10;38.83
12763;BME280;6445;52.490;13.378;2023-08-21T07:36:13;53624.69;;;-146.10;39.67
12763;BME280;6445;52.490;13.378;2023-08-21T07:38:42;53602.69;;;-146.10;39.70
12763;BME280;6445;52.490;13.378;2023-08-21T07:41:09;53478.59;;;-146.10;41.13
12763;BME280;6445;52.490;13.378;2023-08-21T07:43:36;53404.56;;;-146.10;41.88
12763;BME280;6445;52.490;13.378;2023-08-21T07:46:03;53490.63;;;-146.10;41.48
12763;BME280;6445;52.490;13.378;2023-08-21T07:48:29;53354.53;;;-146.10;42.15
12763;BME280;6445;52.490;13.378;2023-08-21T07:50:54;53634.72;;;-146.10;38.61
12763;BME280;6445;52.490;13.378;2023-08-21T07:53:20;53766.78;;;-146.10;35.93
12763;BME280;6445;52.490;13.378;2023-08-21T07:55:45;53792.81;;;-146.10;35.21
12763;BME280;6445;52.490;13.378;2023-08-21T07:58:11;53894.88;;;-146.10;34.34
12763;BME280;6445;52.490;13.378;2023-08-21T08:00:37;53926.91;;;-146.10;34.63
12763;BME280;6445;52.490;13.378;2023-08-21T08:03:03;53726.78;;;-146.10;35.29
12763;BME280;6445;52.490;13.378;2023-08-21T08:05:28;53494.63;;;-146.10;37.69
12763;BME280;6445;52.490;13.378;2023-08-21T08:07:53;53402.56;;;-146.10;39.60
12763;BME280;6445;52.490;13.378;2023-08-21T08:10:19;53144.41;;;-146.10;43.23
12763;BME280;6445;52.490;13.378;2023-08-21T08:12:44;53146.41;;;-146.10;43.31
12763;BME280;6445;52.490;13.378;2023-08-21T08:15:09;53144.41;;;-146.10;42.74
12763;BME280;6445;52.490;13.378;2023-08-21T08:17:35;53124.41;;;-146.10;42.77
12763;BME280;6445;52.490;13.378;2023-08-21T08:20:00;53004.34;;;-146.10;43.80
12763;BME280;6445;52.490;13.378;2023-08-21T08:22:25;52968.31;;;-146.10;46.70
12763;BME280;6445;52.490;13.378;2023-08-21T08:24:51;53002.34;;;-146.10;45.22
12763;BME280;6445;52.490;13.378;2023-08-21T08:27:16;53020.34;;;-146.10;44.46
12763;BME280;6445;52.490;13.378;2023-08-21T08:29:41;52884.28;;;-146.10;47.52
12763;BME280;6445;52.490;13.378;2023-08-21T08:32:06;53058.38;;;-146.10;44.61
12763;BME280;6445;52.490;13.378;2023-08-21T08:34:32;53032.34;;;-146.10;45.07
12763;BME280;6445;52.490;13.378;2023-08-21T08:36:57;53090.38;;;-146.10;45.79
12763;BME280;6445;52.490;13.378;2023-08-21T08:39:22;53178.44;;;-146.10;43.22
12763;BME280;6445;52.490;13.378;2023-08-21T08:41:51;53482.63;;;-146.10;38.00
12763;BME280;6445;52.490;13.378;2023-08-21T08:44:19;53840.84;;;-146.10;33.84
12763;BME280;6445;52.490;13.378;2023-08-21T08:46:44;54069.03;;;-146.10;31.81
12763;BME280;6445;52.490;13.378;2023-08-21T08:49:10;53934.91;;;-146.10;31.50
12763;BME280;6445;52.490;13.378;2023-08-21T08:51:37;53876.88;;;-146.10;31.77
12763;BME280;6445;52.490;13.378;2023-08-21T08:54:05;53428.56;;;-146.10;34.80
12763;BME280;6445;52.490;13.378;2023-08-21T08:56:31;53382.56;;;-146.10;34.56
12763;BME280;6445;52.490;13.378;2023-08-21T08:58:56;53364.53;;;-146.10;34.69
12763;BME280;6445;52.490;13.378;2023-08-21T09:01:22;53416.56;;;-146.10;32.30
12763;BME280;6445;52.490;13.378;2023-08-21T09:03:47;53390.56;;;-146.10;31.42
12763;BME280;6445;52.490;13.378;2023-08-21T09:06:15;53624.69;;;-146.10;30.16
12763;BME280;6445;52.490;13.378;2023-08-21T09:08:53;53910.91;;;-146.10;28.58
12763;BME280;6445;52.490;13.378;2023-08-21T09:11:19;53980.94;;;-146.10;27.76
12763;BME280;6445;52.490;13.378;2023-08-21T09:13:45;53966.94;;;-146.10;27.93
12763;BME280;6445;52.490;13.378;2023-08-21T09:16:10;53996.97;;;-146.10;27.63
12763;BME280;6445;52.490;13.378;2023-08-21T09:18:35;53656.72;;;-146.10;28.06
12763;BME280;6445;52.490;13.378;2023-08-21T09:21:02;54033.00;;;-146.10;27.39
12763;BME280;6445;52.490;13.378;2023-08-21T09:23:28;54024.97;;;-146.10;26.66
12763;BME280;6445;52.490;13.378;2023-08-21T09:25:53;54097.03;;;-146.10;26.81
12763;BME280;6445;52.490;13.378;2023-08-21T09:28:20;53670.72;;;-146.10;28.41
12763;BME280;6445;52.490;13.378;2023-08-21T09:30:53;53654.72;;;-146.10;28.99
12763;BME280;6445;52.490;13.378;2023-08-21T09:33:20;53758.78;;;-146.10;28.73
12763;BME280;6445;52.490;13.378;2023-08-21T09:35:47;53792.81;;;-146.10;28.24
12763;BME280;6445;52.490;13.378;2023-08-21T09:38:12;53912.91;;;-146.10;27.88
12763;BME280;6445;52.490;13.378;2023-08-21T09:40:44;53816.84;;;-146.10;27.87
12763;BME280;6445;52.490;13.378;2023-08-21T09:43:15;53896.88;;;-146.10;28.32
12763;BME280;6445;52.490;13.378;2023-08-21T09:45:40;53876.88;;;-146.10;27.82
12763;BME280;6445;52.490;13.378;2023-08-21T09:48:06;54057.00;;;-146.10;26.93
12763;BME280;6445;52.490;13.378;2023-08-21T09:50:31;54237.16;;;-146.10;26.76
12763;BME280;6445;52.490;13.378;2023-08-21T09:52:58;54199.13;;;-146.10;26.53
12763;BME280;6445;52.490;13.378;2023-08-21T09:55:24;54123.06;;;-146.10;26.82
12763;BME280;6445;52.490;13.378;2023-08-21T09:57:51;54205.13;;;-146.10;26.76
12763;BME280;6445;52.490;13.378;2023-08-21T10:00:25;54041.00;;;-146.10;27.10
12763;BME280;6445;52.490;13.378;2023-08-21T10:02:51;53868.88;;;-146.10;27.55
12763;BME280;6445;52.490;13.378;2023-08-21T10:05:19;53408.56;;;-146.10;30.41
12763;BME280;6445;52.490;13.378;2023-08-21T10:07:47;53496.63;;;-146.10;30.50
12763;BME280;6445;52.490;13.378;2023-08-21T10:10:13;53448.59;;;-146.10;30.72
12763;BME280;6445;52.490;13.378;2023-08-21T10:12:38;53468.59;;;-146.10;30.59
12763;BME280;6445;52.490;13.378;2023-08-21T10:15:04;53414.56;;;-146.10;30.79
12763;BME280;6445;52.490;13.378;2023-08-21T10:17:30;53514.63;;;-146.10;30.91
12763;BME280;6445;52.490;13.378;2023-08-21T10:20:02;53442.59;;;-146.10;30.87
12763;BME280;6445;52.490;13.378;2023-08-21T10:22:52;53374.53;;;-146.10;31.55
12763;BME280;6445;52.490;13.378;2023-08-21T10:25:24;53418.56;;;-146.10;31.96
12763;BME280;6445;52.490;13.378;2023-08-21T10:27:55;53426.56;;;-146.10;30.86
12763;BME280;6445;52.490;13.378;2023-08-21T10:30:26;53450.59;;;-146.10;31.02
12763;BME280;6445;52.490;13.378;2023-08-21T10:32:53;53412.56;;;-146.10;30.84
12763;BME280;6445;52.490;13.378;2023-08-21T10:35:21;53426.56;;;-146.10;31.47
12763;BME280;6445;52.490;13.378;2023-08-21T10:40:35;53212.44;;;-146.10;32.51
12763;BME280;6445;52.490;13.378;2023-08-21T10:43:00;53104.41;;;-146.10;32.55
12763;BME280;6445;52.490;13.378;2023-08-21T10:45:26;53152.41;;;-146.10;33.04
12763;BME280;6445;52.490;13.378;2023-08-21T10:47:51;53112.41;;;-146.10;33.52
12763;BME280;6445;52.490;13.378;2023-08-21T10:50:17;53082.38;;;-146.10;33.16
12763;BME280;6445;52.490;13.378;2023-08-21T10:52:43;53088.38;;;-146.10;32.60
12763;BME280;6445;52.490;13.378;2023-08-21T10:55:13;53102.41;;;-146.10;32.04
12763;BME280;6445;52.490;13.378;2023-08-21T10:57:40;53124.41;;;-146.10;32.24
12763;BME280;6445;52.490;13.378;2023-08-21T11:00:08;53114.41;;;-146.10;32.91
12763;BME280;6445;52.490;13.378;2023-08-21T11:02:35;53150.41;;;-146.10;32.59
12763;BME280;6445;52.490;13.378;2023-08-21T11:05:01;53068.38;;;-146.10;33.28
12763;BME280;6445;52.490;13.378;2023-08-21T11:07:28;53090.38;;;-146.10;33.46
12763;BME280;6445;52.490;13.378;2023-08-21T11:09:53;53102.41;;;-146.10;33.86
12763;BME280;6445;52.490;13.378;2023-08-21T11:12:20;53122.41;;;-146.10;33.65
12763;BME280;6445;52.490;13.378;2023-08-21T11:14:47;53134.41;;;-146.10;33.00
12763;BME280;6445;52.490;13.378;2023-08-21T11:17:13;53140.41;;;-146.10;32.77
12763;BME280;6445;52.490;13.378;2023-08-21T11:19:39;53076.38;;;-146.10;33.73
12763;BME280;6445;52.490;13.378;2023-08-21T11:22:04;53062.38;;;-146.10;34.40
12763;BME280;6445;52.490;13.378;2023-08-21T11:27:06;52972.31;;;-146.10;34.58
12763;BME280;6445;52.490;13.378;2023-08-21T11:29:37;52934.31;;;-146.10;35.51
12763;BME280;6445;52.490;13.378;2023-08-21T11:32:07;52940.31;;;-146.10;36.22
12763;BME280;6445;52.490;13.378;2023-08-21T11:34:32;52932.31;;;-146.10;35.97
12763;BME280;6445;52.490;13.378;2023-08-21T11:36:58;53000.34;;;-146.10;35.35
12763;BME280;6445;52.490;13.378;2023-08-21T11:39:23;53042.38;;;-146.10;34.69
12763;BME280;6445;52.490;13.378;2023-08-21T11:41:56;53048.38;;;-146.10;34.39
12763;BME280;6445;52.490;13.378;2023-08-21T11:44:21;53008.34;;;-146.10;33.33
12763;BME280;6445;52.490;13.378;2023-08-21T11:46:47;53040.38;;;-146.10;32.77
12763;BME280;6445;52.490;13.378;2023-08-21T11:49:12;53022.34;;;-146.10;32.53
12763;BME280;6445;52.490;13.378;2023-08-21T11:51:40;53046.38;;;-146.10;32.89
12763;BME280;6445;52.490;13.378;2023-08-21T11:54:06;53042.38;;;-146.10;33.38
12763;BME280;6445;52.490;13.378;2023-08-21T11:56:34;53006.34;;;-146.10;33.33
12763;BME280;6445;52.490;13.378;2023-08-21T11:59:02;53046.38;;;-146.10;33.83
12763;BME280;6445;52.490;13.378;2023-08-21T12:01:32;53114.41;;;-146.10;33.02
12763;BME280;6445;52.490;13.378;2023-08-21T12:03:58;53070.38;;;-146.10;34.08
12763;BME280;6445;52.490;13.378;2023-08-21T12:06:23;53082.38;;;-146.10;33.26
12763;BME280;6445;52.490;13.378;2023-08-21T12:08:50;53064.38;;;-146.10;32.91
12763;BME280;6445;52.490;13.378;2023-08-21T12:11:15;53020.34;;;-146.10;32.91
12763;BME280;6445;52.490;13.378;2023-08-21T12:13:40;52962.31;;;-146.10;32.94
12763;BME280;6445;52.490;13.378;2023-08-21T12:16:06;52968.31;;;-146.10;33.71
12763;BME280;6445;52.490;13.378;2023-08-21T12:18:31;52906.28;;;-146.10;34.63
12763;BME280;6445;52.490;13.378;2023-08-21T12:20:56;52840.25;;;-146.10;35.10
12763;BME280;6445;52.490;13.378;2023-08-21T12:23:25;52898.28;;;-146.10;35.47
12763;BME280;6445;52.490;13.378;2023-08-21T12:25:50;52944.31;;;-146.10;35.61
12763;BME280;6445;52.490;13.378;2023-08-21T12:28:16;52958.31;;;-146.10;35.25
12763;BME280;6445;52.490;13.378;2023-08-21T12:30:41;52932.31;;;-146.10;34.78